createdAt,value
2018-06-18T00:01:04.978Z,2.08
2018-06-18T00:03:32.426Z,1.65
2018-06-18T00:06:00.035Z,2.30
2018-06-18T00:08:27.459Z,2.22
2018-06-18T00:10:55.294Z,2.33
2018-06-18T00:13:22.693Z,1.87
2018-06-18T00:15:50.518Z,1.67
2018-06-18T00:18:18.331Z,1.80
2018-06-18T00:20:46.259Z,1.62
2018-06-18T00:23:14.030Z,1.87
2018-06-18T00:25:41.844Z,1.50
2018-06-18T00:28:09.242Z,2.08
2018-06-18T00:30:37.089Z,1.65
2018-06-18T00:33:05.297Z,1.57
2018-06-18T00:35:32.718Z,1.82
2018-06-18T00:38:00.154Z,1.65
2018-06-18T00:40:27.573Z,2.15
2018-06-18T00:42:55.006Z,1.75
2018-06-18T00:45:22.430Z,1.20
2018-06-18T00:47:49.886Z,1.20
2018-06-18T00:50:17.369Z,1.62
2018-06-18T00:52:44.785Z,1.60
2018-06-18T00:55:16.763Z,1.25
2018-06-18T00:57:44.309Z,1.45
2018-06-18T01:00:11.708Z,1.30
2018-06-18T01:02:39.150Z,1.90
2018-06-18T01:05:06.857Z,1.67
2018-06-18T01:07:34.292Z,2.20
2018-06-18T01:10:01.710Z,1.60
2018-06-18T01:12:29.149Z,1.67
2018-06-18T01:14:56.662Z,1.67
2018-06-18T01:17:24.126Z,1.60
2018-06-18T01:19:51.526Z,1.47
2018-06-18T01:22:18.922Z,1.77
2018-06-18T01:24:47.964Z,1.47
2018-06-18T01:27:15.390Z,1.82
2018-06-18T01:29:42.790Z,2.25
2018-06-18T01:32:10.295Z,1.37
2018-06-18T01:34:37.930Z,1.35
2018-06-18T01:37:05.342Z,1.57
2018-06-18T01:39:32.770Z,1.75
2018-06-18T01:42:00.154Z,2.12
2018-06-18T01:44:27.586Z,2.02
2018-06-18T01:46:55.019Z,1.60
2018-06-18T01:49:22.419Z,1.90
2018-06-18T01:51:49.847Z,1.70
2018-06-18T01:54:17.355Z,1.98
2018-06-18T01:56:44.785Z,1.67
2018-06-18T01:59:12.203Z,1.50
2018-06-18T02:01:39.623Z,1.70
2018-06-18T02:04:07.378Z,1.82
2018-06-18T02:06:34.950Z,1.80
2018-06-18T02:09:02.679Z,1.37
2018-06-18T02:11:30.170Z,1.00
2018-06-18T02:13:57.683Z,1.40
2018-06-18T02:16:25.127Z,1.30
2018-06-18T02:18:52.586Z,1.47
2018-06-18T02:21:19.994Z,2.00
2018-06-18T02:23:47.865Z,1.77
2018-06-18T02:26:15.266Z,1.75
2018-06-18T02:28:48.371Z,1.87
2018-06-18T02:31:21.488Z,1.55
2018-06-18T02:33:54.835Z,1.80
2018-06-18T02:37:30.750Z,2.00
2018-06-18T02:40:04.243Z,1.50
2018-06-18T02:42:31.660Z,1.70
2018-06-18T02:44:59.138Z,1.85
2018-06-18T02:47:26.606Z,1.90
2018-06-18T02:49:54.657Z,1.82
2018-06-18T02:52:22.081Z,2.10
2018-06-18T02:54:49.485Z,1.77
2018-06-18T02:57:16.990Z,1.30
2018-06-18T02:59:44.399Z,1.52
2018-06-18T03:02:11.833Z,1.55
2018-06-18T03:04:39.259Z,1.37
2018-06-18T03:07:06.950Z,1.57
2018-06-18T03:09:34.392Z,1.35
2018-06-18T03:12:01.808Z,1.80
2018-06-18T03:14:29.228Z,1.67
2018-06-18T03:16:56.649Z,1.35
2018-06-18T03:19:29.687Z,1.20
2018-06-18T03:22:02.874Z,1.45
2018-06-18T03:24:35.971Z,1.55
2018-06-18T03:27:09.232Z,1.00
2018-06-18T03:29:37.127Z,1.60
2018-06-18T03:32:06.538Z,1.62
2018-06-18T03:34:33.994Z,1.30
2018-06-18T03:37:01.439Z,1.20
2018-06-18T03:39:29.169Z,1.47
2018-06-18T03:41:56.691Z,1.37
2018-06-18T03:44:26.391Z,1.47
2018-06-18T03:46:54.399Z,1.62
2018-06-18T03:49:21.923Z,1.55
2018-06-18T03:51:49.328Z,1.52
2018-06-18T03:54:16.862Z,1.40
2018-06-18T03:56:44.293Z,1.55
2018-06-18T03:59:11.918Z,1.72
2018-06-18T04:01:59.585Z,1.70
2018-06-18T04:04:35.146Z,1.35
2018-06-18T04:07:08.268Z,1.37
2018-06-18T04:09:41.631Z,1.70
2018-06-18T04:12:10.751Z,0.90
2018-06-18T04:14:38.175Z,1.40
2018-06-18T04:17:06.122Z,1.42
2018-06-18T04:19:34.453Z,1.50
2018-06-18T04:22:02.347Z,1.57
2018-06-18T04:24:30.801Z,1.35
2018-06-18T04:26:58.674Z,1.40
2018-06-18T04:29:26.078Z,1.05
2018-06-18T04:31:54.423Z,1.30
2018-06-18T04:34:23.808Z,1.12
2018-06-18T04:36:51.610Z,1.10
2018-06-18T04:39:19.284Z,0.70
2018-06-18T04:41:52.391Z,0.90
2018-06-18T04:44:25.652Z,1.20
2018-06-18T04:46:58.901Z,1.10
2018-06-18T04:49:31.828Z,1.00
2018-06-18T04:51:59.246Z,0.95
2018-06-18T04:54:26.674Z,1.27
2018-06-18T04:56:54.324Z,1.00
2018-06-18T04:59:22.151Z,1.10
2018-06-18T05:01:49.637Z,1.40
2018-06-18T05:04:17.239Z,1.35
2018-06-18T05:06:44.678Z,1.50
2018-06-18T05:09:19.219Z,1.17
2018-06-18T05:11:46.646Z,1.55
2018-06-18T05:14:14.374Z,1.90
2018-06-18T05:16:41.851Z,1.20
2018-06-18T05:19:10.609Z,1.35
2018-06-18T05:21:38.494Z,1.45
2018-06-18T05:24:05.991Z,1.92
2018-06-18T05:26:34.107Z,1.25
2018-06-18T05:29:02.440Z,2.05
2018-06-18T05:31:29.964Z,1.20
2018-06-18T05:33:57.550Z,1.30
2018-06-18T05:36:24.999Z,1.20
2018-06-18T05:38:53.056Z,1.42
2018-06-18T05:41:23.290Z,1.27
2018-06-18T05:43:50.759Z,0.95
2018-06-18T05:46:18.698Z,1.22
2018-06-18T05:48:46.151Z,1.80
2018-06-18T05:51:13.715Z,1.30
2018-06-18T05:53:41.167Z,1.32
2018-06-18T05:56:09.138Z,1.20
2018-06-18T05:58:36.564Z,1.35
2018-06-18T06:01:05.223Z,1.22
2018-06-18T06:03:33.028Z,1.37
2018-06-18T06:06:00.532Z,1.30
2018-06-18T06:08:28.295Z,0.80
2018-06-18T06:10:55.791Z,1.02
2018-06-18T06:13:23.664Z,0.80
2018-06-18T06:15:51.126Z,1.35
2018-06-18T06:18:18.573Z,1.67
2018-06-18T06:20:48.572Z,1.85
2018-06-18T06:23:16.472Z,1.35
2018-06-18T06:25:44.288Z,1.12
2018-06-18T06:28:11.788Z,1.10
2018-06-18T06:30:39.250Z,1.42
2018-06-18T06:33:06.687Z,1.37
2018-06-18T06:35:35.598Z,1.55
2018-06-18T06:38:03.098Z,0.95
2018-06-18T06:40:30.609Z,1.27
2018-06-18T06:42:58.215Z,1.47
2018-06-18T06:45:25.641Z,1.17
2018-06-18T06:47:53.284Z,1.30
2018-06-18T06:50:20.773Z,1.52
2018-06-18T06:52:48.432Z,0.98
2018-06-18T06:55:16.044Z,1.15
2018-06-18T06:57:43.581Z,1.50
2018-06-18T07:00:11.028Z,1.85
2018-06-18T07:02:39.011Z,1.40
2018-06-18T07:05:06.454Z,1.20
2018-06-18T07:07:33.903Z,1.12
2018-06-18T07:10:01.342Z,1.30
2018-06-18T07:12:28.766Z,1.20
2018-06-18T07:14:56.179Z,1.70
2018-06-18T07:17:24.043Z,1.17
2018-06-18T07:19:51.514Z,0.98
2018-06-18T07:22:18.910Z,1.35
2018-06-18T07:24:46.411Z,1.30
2018-06-18T07:27:13.858Z,0.95
2018-06-18T07:29:41.362Z,1.10
2018-06-18T07:32:08.816Z,1.15
2018-06-18T07:34:36.503Z,1.27
2018-06-18T07:37:03.939Z,1.70
2018-06-18T07:39:31.335Z,1.22
2018-06-18T07:41:58.759Z,1.00
2018-06-18T07:44:26.642Z,1.12
2018-06-18T07:46:54.068Z,0.72
2018-06-18T07:49:21.500Z,1.30
2018-06-18T07:51:49.018Z,1.27
2018-06-18T07:54:16.722Z,1.20
2018-06-18T07:56:44.134Z,0.90
2018-06-18T07:59:11.541Z,0.85
2018-06-18T08:01:38.971Z,0.95
2018-06-18T08:04:06.399Z,1.35
2018-06-18T08:06:33.963Z,1.02
2018-06-18T08:09:01.406Z,0.75
2018-06-18T08:11:28.861Z,0.88
2018-06-18T08:13:56.407Z,1.30
2018-06-18T08:16:23.858Z,0.70
2018-06-18T08:18:51.298Z,0.93
2018-06-18T08:21:18.738Z,1.20
2018-06-18T08:23:46.281Z,1.37
2018-06-18T08:26:13.711Z,0.95
2018-06-18T08:28:41.278Z,1.00
2018-06-18T08:31:08.974Z,1.22
2018-06-18T08:33:36.394Z,1.00
2018-06-18T08:36:04.051Z,1.00
2018-06-18T08:38:31.494Z,1.12
2018-06-18T08:40:58.920Z,0.93
2018-06-18T08:43:26.417Z,1.25
2018-06-18T08:45:53.848Z,0.90
2018-06-18T08:48:27.065Z,1.35
2018-06-18T08:51:00.371Z,1.00
2018-06-18T08:53:33.683Z,1.17
2018-06-18T08:56:06.851Z,1.07
2018-06-18T08:58:39.926Z,1.15
2018-06-18T09:01:09.683Z,1.07
2018-06-18T09:03:42.903Z,1.00
2018-06-18T09:06:10.343Z,1.20
2018-06-18T09:08:43.580Z,0.82
2018-06-18T09:11:11.027Z,0.98
2018-06-18T09:13:38.873Z,1.20
2018-06-18T09:16:06.367Z,0.95
2018-06-18T09:18:33.967Z,1.00
2018-06-18T09:21:01.399Z,1.12
2018-06-18T09:23:29.154Z,0.98
2018-06-18T09:25:58.443Z,0.70
2018-06-18T09:28:26.611Z,1.25
2018-06-18T09:30:54.849Z,1.30
2018-06-18T09:33:22.334Z,1.22
2018-06-18T09:35:50.082Z,1.00
2018-06-18T09:38:17.514Z,1.10
2018-06-18T09:40:44.992Z,1.02
2018-06-18T09:43:12.551Z,1.10
2018-06-18T09:45:40.102Z,1.65
2018-06-18T09:48:07.537Z,1.00
2018-06-18T09:50:40.622Z,1.40
2018-06-18T09:53:13.764Z,0.88
2018-06-18T09:55:46.951Z,1.02
2018-06-18T09:58:19.915Z,0.93
2018-06-18T10:00:57.770Z,0.82
2018-06-18T10:03:25.242Z,1.30
2018-06-18T10:05:52.687Z,0.65
2018-06-18T10:08:20.322Z,1.27
2018-06-18T10:10:47.776Z,0.72
2018-06-18T10:13:15.218Z,0.85
2018-06-18T10:15:42.651Z,0.70
2018-06-18T10:18:10.116Z,1.20
2018-06-18T10:20:37.554Z,1.12
2018-06-18T10:23:05.411Z,0.90
2018-06-18T10:25:33.174Z,1.10
2018-06-18T10:28:00.800Z,0.78
2018-06-18T10:30:28.271Z,0.90
2018-06-18T10:33:01.383Z,0.80
2018-06-18T10:35:34.674Z,0.68
2018-06-18T10:38:07.797Z,0.53
2018-06-18T10:40:40.966Z,0.80
2018-06-18T10:43:14.286Z,0.85
2018-06-18T10:45:41.730Z,0.82
2018-06-18T10:48:09.200Z,0.90
2018-06-18T10:50:36.701Z,0.70
2018-06-18T10:53:04.113Z,0.68
2018-06-18T10:55:31.576Z,0.50
2018-06-18T10:57:59.194Z,0.62
2018-06-18T11:00:27.247Z,0.55
2018-06-18T11:02:55.390Z,0.40
2018-06-18T11:05:28.425Z,0.50
2018-06-18T11:07:55.886Z,0.70
2018-06-18T11:10:23.307Z,0.78
2018-06-18T11:12:51.183Z,0.65
2018-06-18T11:15:18.615Z,0.50
2018-06-18T11:17:51.765Z,0.82
2018-06-18T11:20:24.935Z,0.80
2018-06-18T11:22:58.015Z,0.70
2018-06-18T11:25:31.128Z,0.53
2018-06-18T11:27:58.573Z,0.60
2018-06-18T11:30:26.231Z,0.50
2018-06-18T11:32:53.652Z,0.85
2018-06-18T11:35:21.877Z,0.68
2018-06-18T11:37:49.402Z,0.78
2018-06-18T11:40:17.162Z,0.88
2018-06-18T11:42:44.830Z,0.62
2018-06-18T11:45:12.289Z,0.72
2018-06-18T11:47:39.710Z,0.75
2018-06-18T11:50:07.221Z,0.82
2018-06-18T11:52:34.677Z,0.65
2018-06-18T11:55:02.187Z,1.10
2018-06-18T11:57:29.631Z,1.00
2018-06-18T12:00:02.695Z,1.10
2018-06-18T12:02:35.771Z,0.57
2018-06-18T12:05:08.927Z,0.90
2018-06-18T12:07:42.067Z,0.90
2018-06-18T12:10:09.522Z,0.80
2018-06-18T12:12:36.940Z,1.02
2018-06-18T12:15:04.393Z,1.07
2018-06-18T12:17:32.003Z,1.65
2018-06-18T12:19:59.400Z,0.85
2018-06-18T12:22:26.946Z,0.62
2018-06-18T12:24:54.338Z,1.05
2018-06-18T12:27:23.387Z,0.93
2018-06-18T12:29:51.085Z,1.07
2018-06-18T12:32:18.534Z,1.30
2018-06-18T12:34:46.074Z,1.00
2018-06-18T12:37:13.507Z,0.80
2018-06-18T12:39:40.950Z,1.00
2018-06-18T12:42:08.747Z,1.32
2018-06-18T12:44:42.800Z,0.80
2018-06-18T12:47:18.042Z,0.80
2018-06-18T12:49:51.122Z,0.72
2018-06-18T12:52:24.166Z,0.88
2018-06-18T12:54:57.419Z,1.02
2018-06-18T12:57:24.903Z,0.70
2018-06-18T12:59:52.305Z,1.07
2018-06-18T13:02:21.578Z,0.95
2018-06-18T13:04:50.774Z,0.90
2018-06-18T13:07:18.263Z,1.50
2018-06-18T13:09:45.696Z,1.12
2018-06-18T13:12:13.430Z,0.65
2018-06-18T13:14:40.898Z,0.95
2018-06-18T13:17:08.361Z,0.70
2018-06-18T13:19:36.198Z,1.10
2018-06-18T13:22:03.690Z,0.82
2018-06-18T13:24:31.328Z,1.00
2018-06-18T13:26:58.794Z,1.00
2018-06-18T13:29:26.320Z,1.37
2018-06-18T13:31:53.871Z,1.25
2018-06-18T13:34:21.455Z,1.00
2018-06-18T13:36:51.082Z,0.90
2018-06-18T13:39:24.180Z,0.72
2018-06-18T13:41:57.367Z,0.82
2018-06-18T13:44:30.499Z,0.80
2018-06-18T13:47:03.556Z,1.50
2018-06-18T13:49:36.703Z,1.00
2018-06-18T13:52:04.317Z,1.15
2018-06-18T13:54:31.764Z,0.85
2018-06-18T13:56:59.299Z,0.95
2018-06-18T13:59:26.930Z,0.80
2018-06-18T14:01:54.370Z,0.72
2018-06-18T14:04:21.818Z,0.80
2018-06-18T14:06:49.404Z,0.65
2018-06-18T14:09:16.854Z,0.95
2018-06-18T14:11:44.379Z,0.85
2018-06-18T14:14:11.819Z,0.78
2018-06-18T14:16:39.902Z,0.85
2018-06-18T14:19:13.039Z,1.27
2018-06-18T14:21:40.504Z,0.60
2018-06-18T14:24:08.058Z,0.80
2018-06-18T14:26:35.608Z,0.62
2018-06-18T14:29:03.081Z,1.10
2018-06-18T14:31:36.229Z,0.88
2018-06-18T14:34:09.234Z,0.95
2018-06-18T14:36:42.215Z,0.60
2018-06-18T14:39:15.391Z,0.60
2018-06-18T14:41:42.862Z,0.75
2018-06-18T14:44:10.323Z,0.65
2018-06-18T14:46:37.837Z,0.72
2018-06-18T14:49:05.301Z,0.40
2018-06-18T14:51:32.967Z,0.85
2018-06-18T14:54:00.605Z,0.70
2018-06-18T14:56:30.255Z,0.70
2018-06-18T14:58:59.587Z,0.70
2018-06-18T15:01:27.062Z,1.37
2018-06-18T15:03:54.597Z,0.55
2018-06-18T15:06:21.939Z,0.57
2018-06-18T15:08:49.454Z,0.70
2018-06-18T15:11:16.931Z,0.70
2018-06-18T15:13:44.350Z,0.82
2018-06-18T15:16:17.399Z,0.50
2018-06-18T15:18:44.889Z,0.60
2018-06-18T15:21:12.335Z,0.70
2018-06-18T15:23:39.763Z,0.90
2018-06-18T15:26:07.234Z,1.12
2018-06-18T15:28:34.820Z,0.70
2018-06-18T15:31:02.267Z,0.80
2018-06-18T15:33:29.706Z,0.90
2018-06-18T15:35:57.140Z,1.00
2018-06-18T15:38:24.602Z,0.80
2018-06-18T15:40:52.050Z,0.70
2018-06-18T15:43:19.682Z,0.70
2018-06-18T15:45:47.413Z,0.90
2018-06-18T15:48:14.875Z,0.88
2018-06-18T15:50:42.347Z,1.02
2018-06-18T15:53:09.868Z,0.72
2018-06-18T15:55:41.471Z,0.88
2018-06-18T15:58:09.309Z,1.00
2018-06-18T16:00:36.977Z,1.17
2018-06-18T16:03:04.640Z,0.90
2018-06-18T16:05:33.107Z,0.70
2018-06-18T16:08:00.601Z,0.88
2018-06-18T16:10:28.419Z,1.10
2018-06-18T16:12:56.097Z,0.85
2018-06-18T16:15:23.679Z,0.98
2018-06-18T16:17:51.649Z,1.15
2018-06-18T16:20:19.229Z,0.85
2018-06-18T16:22:46.960Z,0.88
2018-06-18T16:25:14.607Z,0.80
2018-06-18T16:27:42.241Z,1.02
2018-06-18T16:30:09.786Z,1.12
2018-06-18T16:32:37.335Z,0.85
2018-06-18T16:35:05.013Z,1.57
2018-06-18T16:37:43.968Z,0.93
2018-06-18T16:40:23.117Z,1.15
2018-06-18T16:43:01.404Z,1.52
2018-06-18T16:45:35.642Z,1.15
2018-06-18T16:48:21.142Z,1.17
2018-06-18T16:51:00.632Z,1.07
2018-06-18T16:53:31.450Z,0.90
2018-06-18T16:56:01.128Z,1.12
2018-06-18T16:58:30.647Z,1.37
2018-06-18T17:01:03.065Z,0.98
2018-06-18T17:03:36.586Z,0.82
2018-06-18T17:06:08.417Z,1.00
2018-06-18T17:08:45.064Z,0.93
2018-06-18T17:11:14.878Z,1.60
2018-06-18T17:13:45.226Z,0.72
2018-06-18T17:16:16.638Z,0.90
2018-06-18T17:18:44.059Z,0.50
2018-06-18T17:21:13.974Z,0.55
2018-06-18T17:23:43.164Z,1.02
2018-06-18T17:26:10.733Z,1.30
2018-06-18T17:28:39.711Z,1.10
2018-06-18T17:31:07.322Z,1.00
2018-06-18T17:33:34.945Z,0.95
2018-06-18T17:36:03.627Z,1.15
2018-06-18T17:38:36.779Z,1.22
2018-06-18T17:41:06.833Z,0.93
2018-06-18T17:43:34.965Z,0.80
2018-06-18T17:46:02.525Z,1.02
2018-06-18T17:48:30.599Z,1.17
2018-06-18T17:50:58.331Z,1.07
2018-06-18T17:53:25.875Z,1.37
2018-06-18T17:55:53.378Z,1.30
2018-06-18T17:58:20.890Z,1.22
2018-06-18T18:00:48.342Z,1.17
2018-06-18T18:03:15.962Z,2.25
2018-06-18T18:05:43.527Z,2.08
2018-06-18T18:08:11.085Z,1.35
2018-06-18T18:10:38.547Z,0.70
2018-06-18T18:13:06.118Z,1.42
2018-06-18T18:15:33.810Z,1.30
2018-06-18T18:18:01.331Z,0.95
2018-06-18T18:20:28.784Z,1.07
2018-06-18T18:22:56.840Z,1.00
2018-06-18T18:25:24.318Z,1.02
2018-06-18T18:27:54.849Z,0.85
2018-06-18T18:30:22.439Z,0.98
2018-06-18T18:32:53.784Z,1.02
2018-06-18T18:35:22.299Z,1.05
2018-06-18T18:37:49.721Z,1.10
2018-06-18T18:40:17.163Z,1.20
2018-06-18T18:45:23.040Z,1.20
2018-06-18T18:47:59.634Z,1.00
2018-06-18T18:50:27.095Z,1.07
2018-06-18T18:52:54.639Z,1.55
2018-06-18T18:55:27.663Z,1.07
2018-06-18T18:58:00.811Z,1.47
2018-06-18T19:00:28.428Z,0.85
2018-06-18T19:02:55.887Z,1.47
2018-06-18T19:05:23.316Z,1.12
2018-06-18T19:07:50.764Z,0.90
2018-06-18T19:10:21.448Z,1.30
2018-06-18T19:12:49.444Z,1.32
2018-06-18T19:15:17.197Z,0.95
2018-06-18T19:17:51.166Z,0.80
2018-06-18T19:20:26.770Z,1.17
2018-06-18T19:22:54.279Z,1.40
2018-06-18T19:25:21.754Z,1.12
2018-06-18T19:27:49.335Z,0.88
2018-06-18T19:30:17.053Z,0.85
2018-06-18T19:32:46.329Z,1.60
2018-06-18T19:35:13.799Z,0.98
2018-06-18T19:37:41.353Z,1.30
2018-06-18T19:40:09.085Z,1.02
2018-06-18T19:42:36.634Z,0.90
2018-06-18T19:45:05.338Z,0.70
2018-06-18T19:47:35.313Z,1.12
2018-06-18T19:50:02.813Z,0.85
2018-06-18T19:52:30.261Z,1.00
2018-06-18T19:54:59.340Z,1.17
2018-06-18T19:57:26.794Z,1.15
2018-06-18T19:59:54.238Z,1.00
2018-06-18T20:02:21.759Z,0.93
2018-06-18T20:04:49.296Z,0.98
2018-06-18T20:07:17.268Z,1.32
2018-06-18T20:09:44.681Z,1.10
2018-06-18T20:12:12.100Z,1.25
2018-06-18T20:14:39.529Z,1.32
2018-06-18T20:17:07.006Z,1.02
2018-06-18T20:19:34.479Z,1.40
2018-06-18T20:22:01.914Z,1.15
2018-06-18T20:24:29.421Z,1.60
2018-06-18T20:26:56.887Z,1.20
2018-06-18T20:29:24.353Z,1.30
2018-06-18T20:31:51.813Z,1.67
2018-06-18T20:34:19.246Z,1.17
2018-06-18T20:36:47.050Z,1.25
2018-06-18T20:39:14.570Z,1.57
2018-06-18T20:41:42.004Z,1.50
2018-06-18T20:44:11.243Z,1.12
2018-06-18T20:46:39.240Z,1.00
2018-06-18T20:49:07.349Z,1.17
2018-06-18T20:51:34.793Z,1.20
2018-06-18T20:54:02.365Z,1.60
2018-06-18T20:56:29.839Z,1.55
2018-06-18T20:58:57.296Z,1.45
2018-06-18T21:01:24.754Z,2.15
2018-06-18T21:03:52.237Z,1.80
2018-06-18T21:06:19.660Z,1.57
2018-06-18T21:08:47.096Z,2.05
2018-06-18T21:11:14.548Z,1.30
2018-06-18T21:13:42.008Z,1.42
2018-06-18T21:16:09.446Z,1.07
2018-06-18T21:18:36.895Z,1.35
2018-06-18T21:21:04.347Z,1.52
2018-06-18T21:23:31.751Z,0.90
2018-06-18T21:25:59.191Z,1.35
2018-06-18T21:28:26.611Z,1.47
2018-06-18T21:30:54.056Z,1.57
2018-06-18T21:33:21.497Z,1.42
2018-06-18T21:35:48.908Z,1.22
2018-06-18T21:38:16.370Z,1.35
2018-06-18T21:40:43.798Z,1.20
2018-06-18T21:43:11.287Z,1.42
2018-06-18T21:45:38.728Z,1.65
2018-06-18T21:48:06.155Z,1.70
2018-06-18T21:50:33.715Z,1.62
2018-06-18T21:53:01.463Z,1.60
2018-06-18T21:55:29.083Z,1.70
2018-06-18T21:57:56.549Z,1.60
2018-06-18T22:00:26.391Z,1.37
2018-06-18T22:02:53.819Z,1.30
2018-06-18T22:05:21.298Z,1.62
2018-06-18T22:07:49.678Z,1.95
2018-06-18T22:10:17.465Z,1.50
2018-06-18T22:12:44.903Z,1.65
2018-06-18T22:15:12.421Z,1.87
2018-06-18T22:17:39.890Z,1.85
2018-06-18T22:20:07.367Z,1.85
2018-06-18T22:22:34.985Z,2.20
2018-06-18T22:25:02.464Z,1.60
2018-06-18T22:27:29.885Z,1.95
2018-06-18T22:29:57.362Z,2.27
2018-06-18T22:32:24.803Z,2.02
2018-06-18T22:34:52.262Z,1.62
2018-06-18T22:37:19.706Z,2.15
2018-06-18T22:39:47.146Z,1.72
2018-06-18T22:42:14.670Z,1.70
2018-06-18T22:44:42.162Z,2.40
2018-06-18T22:47:09.686Z,2.00
2018-06-18T22:49:37.274Z,2.05
2018-06-18T22:52:05.166Z,1.75
2018-06-18T22:54:32.567Z,2.02
2018-06-18T22:57:00.032Z,2.52
2018-06-18T22:59:27.470Z,1.92
2018-06-18T23:01:55.283Z,1.85
2018-06-18T23:04:22.750Z,1.95
2018-06-18T23:06:50.266Z,2.20
2018-06-18T23:09:17.696Z,2.42
2018-06-18T23:11:45.538Z,2.22
2018-06-18T23:14:17.283Z,2.40
2018-06-18T23:16:44.727Z,2.30
2018-06-18T23:19:12.181Z,2.30
2018-06-18T23:21:39.626Z,2.02
2018-06-18T23:24:07.112Z,2.05
2018-06-18T23:26:34.550Z,2.10
2018-06-18T23:29:03.372Z,2.55
2018-06-18T23:31:30.811Z,2.00
2018-06-18T23:33:58.281Z,1.82
2018-06-18T23:36:25.719Z,1.80
2018-06-18T23:38:53.162Z,1.98
2018-06-18T23:41:21.245Z,2.83
2018-06-18T23:43:48.973Z,2.17
2018-06-18T23:46:16.519Z,2.52
2018-06-18T23:48:43.950Z,2.50
2018-06-18T23:51:11.418Z,2.47
2018-06-18T23:53:38.854Z,2.22
2018-06-18T23:56:06.264Z,2.25
2018-06-18T23:58:33.734Z,2.27
